TimePST,TemperatureF,Dew PointF,Humidity,Sea Level PressureIn,VisibilityMPH,Wind Direction,Wind SpeedMPH,Gust SpeedMPH,PrecipitationIn,Events,Conditions,WindDirDegrees,DateUTC
12:28 AM,52.0,48.9,89,29.39,1.2,South,19.6,36.8,0.15,Rain,Rain,190,2014-01-11 08:28:00
12:53 AM,52.0,48.9,89,29.37,1.0,South,20.7,32.2,0.29,Rain,Heavy Rain,180,2014-01-11 08:53:00
1:12 AM,52.0,48.9,89,29.37,1.2,SSW,19.6,33.4,0.07,Rain,Rain,200,2014-01-11 09:12:00
1:26 AM,52.0,48.9,89,29.36,1.8,SSW,18.4,35.7,0.12,Rain,Rain,200,2014-01-11 09:26:00
1:40 AM,51.1,48.0,89,29.39,1.0,SW,19.6,39.1,0.19,Rain,Heavy Rain,220,2014-01-11 09:40:00
1:47 AM,51.8,46.4,82,29.39,2.0,SW,17.3,28.8,0.24,Rain,Rain,220,2014-01-11 09:47:00
1:53 AM,50.0,46.9,89,29.39,2.0,WSW,16.1,31.1,0.26,Rain,Heavy Rain,240,2014-01-11 09:53:00
2:31 AM,50.0,46.0,86,29.40,3.0,SW,12.7,24.2,0.10,Rain,Rain,230,2014-01-11 10:31:00
2:53 AM,48.9,46.0,90,29.42,3.0,SW,12.7,26.5,0.13,Rain,Light Rain,220,2014-01-11 10:53:00
2:59 AM,48.9,46.0,90,29.41,2.5,SW,13.8,26.5,0.02,Rain,Rain,220,2014-01-11 10:59:00
3:15 AM,48.9,45.0,86,29.42,3.0,SSW,17.3,31.1,0.05,Rain,Light Rain,210,2014-01-11 11:15:00
3:23 AM,48.9,45.0,86,29.42,4.0,SSW,12.7,27.6,0.06,Rain,Light Rain,210,2014-01-11 11:23:00
3:36 AM,48.9,45.0,86,29.42,5.0,SSW,10.4,19.6,0.07,Rain,Light Rain,200,2014-01-11 11:36:00
3:53 AM,48.0,45.0,89,29.41,5.0,South,12.7,26.5,0.07,Rain,Light Rain,190,2014-01-11 11:53:00
4:03 AM,48.0,45.0,89,29.40,6.0,SSW,12.7,25.3,0.00,,Overcast,200,2014-01-11 12:03:00
4:53 AM,48.9,45.0,86,29.40,5.0,South,17.3,25.3,0.00,,Overcast,190,2014-01-11 12:53:00
5:35 AM,50.0,45.0,83,29.40,5.0,SSW,15.0,27.6,N/A,,Haze,200,2014-01-11 13:35:00
5:53 AM,50.0,45.0,83,29.41,5.0,SSW,16.1,27.6,N/A,,Haze,210,2014-01-11 13:53:00
6:16 AM,48.9,45.0,86,29.39,5.0,SSW,13.8,21.9,N/A,,Overcast,200,2014-01-11 14:16:00
6:53 AM,48.9,43.0,80,29.38,5.0,SSW,12.7,21.9,N/A,,Haze,200,2014-01-11 14:53:00
7:07 AM,48.0,42.1,80,29.38,5.0,SSW,13.8,23.0,N/A,,Haze,200,2014-01-11 15:07:00
7:53 AM,48.9,42.1,77,29.35,5.0,SSW,15.0,24.2,N/A,,Haze,200,2014-01-11 15:53:00
8:06 AM,48.9,42.1,77,29.33,4.0,South,15.0,29.9,N/A,,Haze,190,2014-01-11 16:06:00
8:34 AM,48.0,44.1,86,29.32,1.8,South,15.0,28.8,0.04,Rain,Heavy Rain,190,2014-01-11 16:34:00
8:48 AM,48.2,44.6,87,29.31,1.2,South,10.4,31.1,0.12,Rain,Heavy Rain,190,2014-01-11 16:48:00
8:53 AM,48.0,44.1,86,29.29,1.2,North,-9999.0,-,0.15,Rain-Thunderstorm,Heavy Thunderstorms and Rain,0,2014-01-11 16:53:00
8:58 AM,48.0,44.1,86,29.32,1.8,SSW,20.7,33.4,0.01,Rain-Thunderstorm,Light Thunderstorms and Rain,210,2014-01-11 16:58:00
9:13 AM,48.0,44.1,86,29.31,1.2,SSW,18.4,34.5,0.04,Rain,Light Rain,200,2014-01-11 17:13:00
9:28 AM,48.0,43.0,83,29.29,0.8,SSW,21.9,40.3,0.15,Rain,Rain,210,2014-01-11 17:28:00
9:33 AM,48.0,44.1,86,29.29,1.8,South,24.2,42.6,0.18,Rain,Light Rain,190,2014-01-11 17:33:00
9:40 AM,48.9,44.1,83,29.30,2.5,SSW,19.6,36.8,0.19,Rain,Light Rain,210,2014-01-11 17:40:00
9:53 AM,48.9,44.1,83,29.30,2.5,SSW,16.1,27.6,0.19,Rain,Light Rain,210,2014-01-11 17:53:00
10:06 AM,48.0,43.0,83,29.30,4.0,SSW,17.3,32.2,0.00,,Haze,200,2014-01-11 18:06:00
10:16 AM,48.0,43.0,83,29.30,3.0,SSW,16.1,27.6,0.00,,Haze,210,2014-01-11 18:16:00
10:25 AM,48.9,43.0,80,29.30,3.0,SSW,15.0,26.5,0.00,,Haze,200,2014-01-11 18:25:00
10:53 AM,48.9,44.1,83,29.29,3.0,SSW,17.3,27.6,0.00,Rain,Light Rain,210,2014-01-11 18:53:00
11:03 AM,48.9,44.1,83,29.28,2.5,SSW,12.7,28.8,0.00,,Haze,200,2014-01-11 19:03:00
11:18 AM,48.0,43.0,83,29.27,1.2,SSW,19.6,28.8,0.00,Rain,Rain,200,2014-01-11 19:18:00
11:24 AM,46.9,42.1,83,29.26,1.0,SSW,15.0,28.8,0.02,Rain-Thunderstorm,Thunderstorms and Rain,210,2014-01-11 19:24:00
11:29 AM,46.9,42.1,83,29.26,1.8,SSW,12.7,27.6,0.03,Rain-Thunderstorm,Light Thunderstorms and Rain,200,2014-01-11 19:29:00
11:31 AM,46.9,42.1,83,29.26,3.0,South,15.0,25.3,0.03,Rain-Thunderstorm,Light Thunderstorms and Rain,190,2014-01-11 19:31:00
11:41 AM,48.0,43.0,83,29.24,2.5,South,15.0,26.5,0.03,Thunderstorm,Haze,190,2014-01-11 19:41:00
11:43 AM,48.0,43.0,83,29.24,2.5,South,12.7,26.5,0.03,,Haze,190,2014-01-11 19:43:00
11:53 AM,48.9,43.0,80,29.23,2.5,South,20.7,31.1,0.03,,Haze,190,2014-01-11 19:53:00
12:06 PM,48.0,43.0,83,29.22,3.0,South,20.7,44.9,0.00,Rain,Light Rain,190,2014-01-11 20:06:00
12:13 PM,48.0,43.0,83,29.21,2.0,SSW,19.6,34.5,0.00,Rain,Light Rain,200,2014-01-11 20:13:00
12:17 PM,48.0,43.0,83,29.21,1.2,South,19.6,33.4,0.00,Rain,Light Rain,190,2014-01-11 20:17:00
12:27 PM,48.9,43.0,80,29.21,2.0,SSW,25.3,38.0,0.01,Rain,Light Rain,200,2014-01-11 20:27:00
12:44 PM,48.9,42.1,77,29.23,4.0,SW,21.9,39.1,0.01,Rain,Light Rain,230,2014-01-11 20:44:00
12:53 PM,48.9,42.1,77,29.24,4.0,SW,23.0,39.1,0.01,,Haze,230,2014-01-11 20:53:00
1:15 PM,48.9,43.0,80,29.25,1.8,SW,21.9,31.1,0.00,Rain,Light Rain,230,2014-01-11 21:15:00
1:22 PM,46.9,43.0,86,29.25,1.0,WSW,21.9,31.1,0.02,Rain,Light Rain,240,2014-01-11 21:22:00
1:26 PM,46.9,42.1,83,29.25,2.0,SW,18.4,31.1,0.02,Rain,Light Rain,230,2014-01-11 21:26:00
1:33 PM,48.0,43.0,83,29.25,4.0,SW,15.0,26.5,0.02,,Haze,230,2014-01-11 21:33:00
1:39 PM,48.0,43.0,83,29.26,2.5,WSW,19.6,29.9,0.02,Rain,Light Rain,240,2014-01-11 21:39:00
1:48 PM,48.2,42.8,82,29.26,1.5,WSW,13.8,31.1,0.04,Rain,Light Rain,240,2014-01-11 21:48:00
1:53 PM,46.9,42.1,83,29.26,2.0,WSW,18.4,26.5,0.04,Rain,Light Rain,240,2014-01-11 21:53:00
2:02 PM,48.0,43.0,83,29.26,1.0,WSW,20.7,-,0.00,Rain,Rain,250,2014-01-11 22:02:00
2:09 PM,46.0,39.9,79,29.27,0.5,WSW,23.0,31.1,0.13,Rain,Rain,250,2014-01-11 22:09:00
2:13 PM,46.9,41.0,80,29.28,1.5,WSW,18.4,31.1,0.14,Rain,Light Rain,250,2014-01-11 22:13:00
2:15 PM,46.9,42.1,83,29.28,3.0,WSW,16.1,31.1,0.14,Rain,Light Rain,250,2014-01-11 22:15:00
2:53 PM,48.9,43.0,80,29.31,2.0,WSW,23.0,36.8,0.14,Rain,Light Rain,250,2014-01-11 22:53:00
3:06 PM,48.9,43.0,80,29.32,3.0,WSW,18.4,32.2,0.00,Rain,Light Rain,250,2014-01-11 23:06:00
3:27 PM,48.9,42.1,77,29.34,4.0,WSW,23.0,32.2,0.00,,Haze,250,2014-01-11 23:27:00
3:36 PM,48.9,41.0,74,29.35,4.0,West,26.5,40.3,0.00,,Haze,260,2014-01-11 23:36:00
3:53 PM,48.0,41.0,77,29.37,3.0,WSW,20.7,35.7,0.00,Rain,Light Rain,250,2014-01-11 23:53:00
4:12 PM,48.0,41.0,77,29.38,4.0,West,24.2,35.7,0.00,Rain,Light Rain,260,2014-01-12 00:12:00
4:53 PM,48.0,41.0,77,29.42,4.0,West,21.9,40.3,0.00,,Haze,270,2014-01-12 00:53:00
5:05 PM,48.0,41.0,77,29.43,5.0,West,18.4,28.8,N/A,,Haze,260,2014-01-12 01:05:00
5:53 PM,48.0,41.0,77,29.49,6.0,West,16.1,28.8,0.00,,Haze,280,2014-01-12 01:53:00
6:53 PM,48.0,42.1,80,29.56,5.0,WNW,16.1,29.9,0.00,,Haze,300,2014-01-12 02:53:00
7:53 PM,48.0,39.9,74,29.64,5.0,WNW,17.3,27.6,N/A,,Haze,290,2014-01-12 03:53:00
8:53 PM,48.0,37.9,68,29.71,5.0,WNW,10.4,28.8,N/A,,Haze,290,2014-01-12 04:53:00
9:19 PM,48.0,37.0,66,29.74,5.0,WNW,15.0,28.8,N/A,,Haze,290,2014-01-12 05:19:00
9:53 PM,46.9,37.9,71,29.78,5.0,WNW,12.7,21.9,N/A,,Haze,290,2014-01-12 05:53:00
10:04 PM,46.9,37.9,71,29.79,5.0,WNW,15.0,23.0,N/A,,Haze,290,2014-01-12 06:04:00
10:37 PM,46.9,37.0,68,29.83,5.0,WNW,13.8,31.1,N/A,,Haze,290,2014-01-12 06:37:00
10:53 PM,46.9,36.0,66,29.84,5.0,WNW,13.8,23.0,N/A,,Haze,290,2014-01-12 06:53:00
11:53 PM,46.9,36.0,66,29.89,6.0,WNW,13.8,23.0,N/A,,Haze,290,2014-01-12 07:53:00